createdAt,value
2023-12-11T00:04:44.128Z,57.70
2023-12-11T00:10:08.366Z,57.37
2023-12-11T00:15:12.123Z,57.80
2023-12-11T00:20:49.964Z,57.63
2023-12-11T00:25:52.597Z,57.41
2023-12-11T00:30:55.844Z,57.25
2023-12-11T00:35:58.475Z,57.29
2023-12-11T00:41:01.186Z,57.29
2023-12-11T00:46:04.233Z,57.24
2023-12-11T00:51:07.090Z,57.27
2023-12-11T00:56:09.970Z,57.39
2023-12-11T01:01:12.922Z,57.42
2023-12-11T01:06:15.823Z,56.57
2023-12-11T01:11:18.456Z,56.55
2023-12-11T01:16:21.405Z,56.83
2023-12-11T01:21:24.198Z,56.66
2023-12-11T01:26:26.971Z,57.06
2023-12-11T01:31:29.599Z,56.64
2023-12-11T01:36:32.285Z,56.59
2023-12-11T01:41:35.077Z,56.45
2023-12-11T01:46:37.750Z,56.30
2023-12-11T01:51:40.516Z,56.30
2023-12-11T01:56:43.933Z,56.57
2023-12-11T02:01:46.966Z,56.70
2023-12-11T02:06:52.182Z,56.75
2023-12-11T02:11:57.080Z,56.54
2023-12-11T02:17:00.469Z,57.05
2023-12-11T02:22:03.427Z,56.80
2023-12-11T02:27:06.325Z,56.40
2023-12-11T02:32:09.046Z,56.75
2023-12-11T02:37:11.826Z,56.88
2023-12-11T02:42:14.661Z,56.76
2023-12-11T02:47:17.316Z,56.53
2023-12-11T02:52:20.050Z,56.32
2023-12-11T02:57:22.812Z,56.60
2023-12-11T03:02:25.545Z,56.99
2023-12-11T03:07:28.603Z,57.11
2023-12-11T03:12:31.534Z,57.10
2023-12-11T03:17:34.277Z,57.23
2023-12-11T03:22:37.014Z,57.54
2023-12-11T03:27:39.703Z,57.19
2023-12-11T03:32:42.541Z,57.34
2023-12-11T03:37:45.253Z,57.40
2023-12-11T03:42:48.042Z,57.73
2023-12-11T03:47:50.985Z,57.68
2023-12-11T03:52:53.757Z,57.50
2023-12-11T03:57:56.610Z,58.37
2023-12-11T04:02:59.391Z,58.11
2023-12-11T04:08:02.098Z,58.05
2023-12-11T04:13:04.792Z,57.45
2023-12-11T04:18:07.527Z,57.91
2023-12-11T04:23:10.370Z,58.19
2023-12-11T04:28:13.125Z,58.51
2023-12-11T04:33:15.871Z,57.99
2023-12-11T04:38:18.620Z,58.57
2023-12-11T04:43:21.364Z,58.39
2023-12-11T04:48:24.143Z,58.22
2023-12-11T04:53:26.888Z,58.13
2023-12-11T04:58:29.622Z,57.47
2023-12-11T05:03:32.427Z,57.37
2023-12-11T05:08:35.140Z,57.70
2023-12-11T05:13:37.822Z,57.22
2023-12-11T05:18:40.785Z,56.81
2023-12-11T05:23:43.581Z,56.92
2023-12-11T05:28:46.267Z,55.82
2023-12-11T05:33:49.169Z,55.23
2023-12-11T05:38:52.180Z,55.14
2023-12-11T05:43:54.972Z,54.41
2023-12-11T05:48:57.683Z,54.20
2023-12-11T05:54:00.464Z,54.50
2023-12-11T05:59:03.662Z,54.34
2023-12-11T06:04:06.455Z,54.39
2023-12-11T06:09:09.250Z,54.22
2023-12-11T06:14:12.064Z,53.89
2023-12-11T06:19:14.967Z,53.38
2023-12-11T06:24:17.982Z,53.46
2023-12-11T06:29:20.671Z,52.69
2023-12-11T06:34:23.538Z,52.08
2023-12-11T06:39:26.960Z,51.46
2023-12-11T06:44:29.804Z,50.91
2023-12-11T06:49:33.519Z,50.99
2023-12-11T06:54:36.332Z,51.61
2023-12-11T06:59:39.369Z,51.28
2023-12-11T07:04:43.555Z,51.31
2023-12-11T07:09:47.872Z,50.81
2023-12-11T07:14:51.059Z,50.98
2023-12-11T07:19:53.909Z,51.07
2023-12-11T07:24:56.742Z,51.03
2023-12-11T07:29:59.533Z,51.17
2023-12-11T07:35:02.524Z,51.33
2023-12-11T07:40:07.615Z,51.17
2023-12-11T07:45:11.025Z,50.39
2023-12-11T07:50:13.818Z,49.79
2023-12-11T07:55:16.739Z,49.53
2023-12-11T08:00:21.062Z,49.20
2023-12-11T08:05:23.811Z,49.13
2023-12-11T08:10:26.880Z,48.76
2023-12-11T08:15:29.687Z,48.28
2023-12-11T08:20:32.395Z,47.68
2023-12-11T08:25:35.096Z,46.68
2023-12-11T08:30:37.810Z,46.52
2023-12-11T08:35:40.627Z,45.29
2023-12-11T08:40:44.528Z,43.82
2023-12-11T08:45:47.324Z,42.49
2023-12-11T08:50:53.862Z,40.94
2023-12-11T08:55:56.693Z,39.41
2023-12-11T09:00:59.791Z,38.59
2023-12-11T09:06:03.355Z,37.19
2023-12-11T09:11:06.289Z,36.93
2023-12-11T09:16:09.388Z,35.86
2023-12-11T09:21:12.166Z,34.62
2023-12-11T09:26:14.915Z,35.95
2023-12-11T09:31:20.426Z,36.75
2023-12-11T09:36:23.268Z,37.75
2023-12-11T09:41:30.803Z,38.19
2023-12-11T09:46:42.845Z,39.19
2023-12-11T09:51:45.771Z,38.70
2023-12-11T09:56:49.681Z,40.43
2023-12-11T10:01:53.114Z,41.29
2023-12-11T10:06:56.097Z,41.18
2023-12-11T10:12:04.456Z,41.34
2023-12-11T10:17:19.098Z,41.23
2023-12-11T10:22:32.592Z,42.15
2023-12-11T10:27:35.312Z,42.92
2023-12-11T10:32:38.333Z,43.39
2023-12-11T10:37:43.726Z,43.14
2023-12-11T10:42:57.793Z,44.12
2023-12-11T10:48:01.719Z,44.47
2023-12-11T10:53:07.482Z,44.43
2023-12-11T10:58:14.147Z,44.59
2023-12-11T11:03:18.321Z,44.65
2023-12-11T11:08:37.265Z,45.24
2023-12-11T11:14:11.118Z,45.07
2023-12-11T11:19:13.872Z,44.73
2023-12-11T11:24:27.673Z,45.62
2023-12-11T11:29:50.714Z,45.46
2023-12-11T11:34:53.645Z,45.86
2023-12-11T11:40:07.251Z,45.77
2023-12-11T11:45:11.380Z,45.74
2023-12-11T11:50:20.768Z,46.17
2023-12-11T11:55:29.860Z,46.38
2023-12-11T12:00:37.475Z,46.71
2023-12-11T12:05:56.903Z,46.72
2023-12-11T12:11:01.094Z,47.65
2023-12-11T12:16:04.521Z,47.68
2023-12-11T12:21:09.725Z,47.76
2023-12-11T12:26:13.379Z,47.38
2023-12-11T12:31:20.515Z,48.23
2023-12-11T12:36:26.619Z,48.04
2023-12-11T12:41:31.192Z,47.64
2023-12-11T12:46:41.956Z,47.96
2023-12-11T12:51:49.973Z,48.08
2023-12-11T12:57:45.427Z,47.87
2023-12-11T13:02:50.930Z,48.52
2023-12-11T13:08:00.003Z,48.58
2023-12-11T13:13:13.101Z,48.70
2023-12-11T13:18:17.042Z,48.89
2023-12-11T13:23:20.088Z,49.19
2023-12-11T13:28:22.969Z,48.46
2023-12-11T13:33:29.340Z,48.93
2023-12-11T13:38:32.579Z,48.80
2023-12-11T13:43:36.362Z,49.08
2023-12-11T13:48:40.342Z,48.96
2023-12-11T13:53:52.717Z,48.78
2023-12-11T14:00:18.557Z,49.02
2023-12-11T14:12:12.347Z,48.51
2023-12-11T14:24:37.035Z,48.46
2023-12-11T14:29:39.848Z,48.18
2023-12-11T14:34:43.968Z,48.33
2023-12-11T14:39:51.488Z,48.33
2023-12-11T14:44:55.291Z,48.79
2023-12-11T14:50:01.934Z,47.87
2023-12-11T14:55:08.556Z,48.03
2023-12-11T15:00:12.664Z,47.89
2023-12-11T15:05:17.021Z,47.57
2023-12-11T15:10:20.387Z,47.60
2023-12-11T15:15:23.369Z,46.90
2023-12-11T15:20:26.311Z,47.08
2023-12-11T15:25:29.294Z,46.77
2023-12-11T15:37:53.759Z,46.48
2023-12-11T15:42:57.588Z,46.76
2023-12-11T15:48:03.040Z,46.09
2023-12-11T15:53:16.999Z,45.90
2023-12-11T16:04:51.149Z,45.36
2023-12-11T16:09:54.449Z,45.41
2023-12-11T16:14:58.015Z,45.13
2023-12-11T16:20:01.323Z,45.07
2023-12-11T16:25:08.137Z,44.46
2023-12-11T16:30:11.665Z,44.65
2023-12-11T16:35:14.864Z,44.75
2023-12-11T16:40:18.954Z,44.28
2023-12-11T16:46:26.642Z,44.31
2023-12-11T16:52:03.728Z,43.93
2023-12-11T16:57:06.668Z,43.88
2023-12-11T17:02:10.398Z,43.50
2023-12-11T17:07:15.985Z,43.65
2023-12-11T17:12:18.857Z,43.79
2023-12-11T17:17:21.758Z,43.65
2023-12-11T17:22:24.605Z,44.17
2023-12-11T17:27:27.622Z,43.44
2023-12-11T17:32:30.976Z,43.29
2023-12-11T17:37:33.864Z,43.16
2023-12-11T17:42:36.593Z,42.98
2023-12-11T17:47:39.381Z,42.72
2023-12-11T17:52:42.235Z,41.94
2023-12-11T17:57:45.125Z,42.30
2023-12-11T18:02:48.498Z,42.10
2023-12-11T18:07:51.295Z,42.02
2023-12-11T18:12:54.136Z,41.72
2023-12-11T18:17:57.156Z,41.98
2023-12-11T18:23:02.178Z,41.07
2023-12-11T18:28:05.010Z,41.22
2023-12-11T18:33:07.881Z,40.63
2023-12-11T18:38:10.700Z,40.77
2023-12-11T18:43:13.482Z,41.58
2023-12-11T18:48:16.400Z,41.50
2023-12-11T18:53:19.442Z,42.08
2023-12-11T18:58:22.464Z,42.00
2023-12-11T19:03:25.313Z,41.70
2023-12-11T19:08:28.088Z,42.02
2023-12-11T19:13:30.838Z,41.92
2023-12-11T19:18:33.720Z,42.41
2023-12-11T19:23:37.387Z,42.61
2023-12-11T19:28:40.122Z,42.82
2023-12-11T19:33:42.829Z,42.58
2023-12-11T19:38:46.389Z,42.54
2023-12-11T19:43:49.247Z,42.39
2023-12-11T19:48:52.137Z,41.83
2023-12-11T19:53:54.945Z,41.86
2023-12-11T19:58:57.684Z,42.13
2023-12-11T20:04:00.674Z,42.38
2023-12-11T20:09:03.536Z,42.19
2023-12-11T20:14:06.207Z,41.78
2023-12-11T20:19:09.970Z,41.54
2023-12-11T20:24:15.242Z,41.68
2023-12-11T20:29:18.601Z,41.90
2023-12-11T20:34:21.347Z,41.77
2023-12-11T20:39:24.137Z,41.88
2023-12-11T20:44:26.871Z,42.03
2023-12-11T20:49:29.761Z,42.40
2023-12-11T20:54:32.998Z,42.84
2023-12-11T20:59:35.778Z,43.58
2023-12-11T21:04:38.539Z,44.33
2023-12-11T21:09:43.890Z,44.86
2023-12-11T21:14:46.684Z,45.26
2023-12-11T21:19:49.365Z,45.84
2023-12-11T21:24:52.134Z,46.32
2023-12-11T21:29:54.889Z,47.03
2023-12-11T21:34:57.684Z,46.95
2023-12-11T21:40:00.540Z,47.18
2023-12-11T21:45:03.299Z,47.51
2023-12-11T21:50:06.746Z,48.29
2023-12-11T21:55:09.791Z,48.56
2023-12-11T22:00:12.960Z,49.19
2023-12-11T22:05:15.853Z,49.54
2023-12-11T22:10:19.386Z,49.59
2023-12-11T22:15:22.038Z,50.26
2023-12-11T22:20:25.262Z,50.45
2023-12-11T22:25:27.959Z,50.56
2023-12-11T22:30:30.807Z,51.61
2023-12-11T22:35:33.448Z,52.08
2023-12-11T22:40:37.429Z,52.42
2023-12-11T22:45:40.112Z,52.68
2023-12-11T22:50:43.004Z,52.27
2023-12-11T22:55:45.746Z,52.31
2023-12-11T23:00:48.604Z,52.29
2023-12-11T23:05:51.392Z,52.35
2023-12-11T23:10:54.949Z,52.32
2023-12-11T23:15:58.254Z,52.75
2023-12-11T23:21:00.987Z,52.32
2023-12-11T23:26:05.685Z,52.95
2023-12-11T23:31:09.552Z,53.28
2023-12-11T23:36:13.140Z,53.20
2023-12-11T23:41:15.958Z,53.15
2023-12-11T23:46:18.982Z,52.99
2023-12-11T23:51:21.786Z,53.28
2023-12-11T23:56:24.578Z,52.95
